Time;durP1;ratioP1;P1;durP2;ratioP2;P2;SDS_P1;SDS_P2;PMS_P1;PMS_P2;Temp;Humidity;BMP_temperature;BMP_pressure;BME280_temperature;BME280_humidity;BME280_pressure;Samples;Min_cycle;Max_cycle;Signal;HPM_P1;HPM_P2
2023/11/29 00:00:07;;;;;;;0.50;0.50;;;;;;;1.37;32.71;91221.41;4936612;28;20039;-77
2023/11/29 00:02:37;;;;;;;0.52;0.52;;;;;;;1.31;33.29;91222.47;4938708;28;20066;-78
2023/11/29 00:05:04;;;;;;;0.50;0.50;;;;;;;1.42;32.44;91218.84;4949074;28;20032;-78
2023/11/29 00:07:30;;;;;;;0.50;0.50;;;;;;;1.44;32.68;91216.78;4928934;28;20071;-78
2023/11/29 00:09:55;;;;;;;0.40;0.40;;;;;;;1.43;32.84;91219.59;4920081;28;20131;-78
2023/11/29 00:12:21;;;;;;;0.43;0.43;;;;;;;1.36;33.40;91206.97;4931120;28;20038;-78
2023/11/29 00:14:46;;;;;;;0.70;0.70;;;;;;;1.32;32.93;91213.69;4921777;28;20066;-77
2023/11/29 00:17:12;;;;;;;0.63;0.63;;;;;;;1.29;32.58;91213.44;4939961;28;20035;-78
2023/11/29 00:19:41;;;;;;;0.50;0.50;;;;;;;1.28;33.23;91222.19;4918155;28;20042;-78
2023/11/29 00:22:06;;;;;;;0.70;0.70;;;;;;;1.29;33.02;91206.47;4918094;28;20079;-77
2023/11/29 00:24:32;;;;;;;0.63;0.63;;;;;;;1.23;33.13;91220.41;4938773;28;20047;-78
2023/11/29 00:26:58;;;;;;;0.60;0.60;;;;;;;1.22;33.52;91221.44;4922693;28;20157;-78
2023/11/29 00:29:24;;;;;;;0.57;0.57;;;;;;;1.28;32.61;91222.19;4933666;28;20585;-78
2023/11/29 00:31:50;;;;;;;0.60;0.60;;;;;;;1.27;32.83;91215.50;4937364;28;21311;-77
2023/11/29 00:34:15;;;;;;;0.60;0.60;;;;;;;1.36;32.69;91219.88;4916985;28;20043;-77
2023/11/29 00:36:41;;;;;;;0.40;0.40;;;;;;;1.33;33.01;91219.59;4924828;28;20031;-78
2023/11/29 00:39:07;;;;;;;0.70;0.70;;;;;;;1.33;32.11;91217.03;4918048;28;20329;-77
2023/11/29 00:41:32;;;;;;;0.65;0.65;;;;;;;1.33;32.67;91229.91;4919942;28;20039;-77
2023/11/29 00:43:58;;;;;;;0.68;0.68;;;;;;;1.32;32.71;91224.00;4919237;28;20088;-78
2023/11/29 00:46:24;;;;;;;0.50;0.50;;;;;;;1.33;32.32;91222.97;4924621;29;20079;-77
2023/11/29 00:48:49;;;;;;;0.70;0.70;;;;;;;1.40;31.69;91220.91;4922496;28;20826;-78
2023/11/29 00:51:15;;;;;;;0.52;0.52;;;;;;;1.39;32.05;91224.50;4933137;28;20042;-78
2023/11/29 00:53:41;;;;;;;0.60;0.60;;;;;;;1.37;31.89;91218.81;4904424;28;20687;-77
2023/11/29 00:56:07;;;;;;;0.60;0.60;;;;;;;1.43;31.51;91220.38;4935966;28;20694;-77
2023/11/29 00:58:32;;;;;;;0.63;0.63;;;;;;;1.56;30.92;91220.88;4926261;28;20511;-78
2023/11/29 01:00:58;;;;;;;0.68;0.68;;;;;;;1.51;31.71;91215.72;4920091;28;20047;-76
2023/11/29 01:03:23;;;;;;;0.60;0.60;;;;;;;1.51;32.00;91226.03;4933586;28;20527;-78
2023/11/29 01:05:49;;;;;;;0.68;0.68;;;;;;;1.44;31.69;91226.28;4929799;28;20031;-78
2023/11/29 01:08:16;;;;;;;0.70;0.70;;;;;;;1.47;31.82;91232.75;4938556;28;20086;-77
2023/11/29 01:10:42;;;;;;;0.65;0.65;;;;;;;1.55;31.43;91232.22;4925961;28;20094;-76
2023/11/29 01:13:07;;;;;;;0.50;0.50;;;;;;;1.55;31.64;91239.94;4914108;28;20106;-78
2023/11/29 01:15:33;;;;;;;0.50;0.50;;;;;;;1.71;31.42;91230.38;4934686;28;20040;-78
2023/11/29 01:17:58;;;;;;;0.50;0.50;;;;;;;1.62;31.05;91232.69;4925424;28;20046;-77
2023/11/29 01:20:24;;;;;;;0.52;0.52;;;;;;;1.60;31.16;91245.09;4942660;28;20766;-77
2023/11/29 01:22:50;;;;;;;0.50;0.50;;;;;;;1.57;31.56;91240.47;4935850;28;20216;-78
2023/11/29 01:25:15;;;;;;;0.60;0.60;;;;;;;1.51;31.63;91244.06;4937711;28;20819;-77
2023/11/29 01:27:42;;;;;;;1.15;0.70;;;;;;;1.51;31.14;91247.44;4937373;28;20055;-77
2023/11/29 01:30:08;;;;;;;0.57;0.57;;;;;;;1.54;30.91;91246.16;4912834;28;20035;-77
2023/11/29 01:32:34;;;;;;;0.50;0.50;;;;;;;1.55;31.46;91256.19;4938234;28;20039;-78
2023/11/29 01:35:01;;;;;;;0.70;0.70;;;;;;;1.51;31.89;91256.97;4934638;28;20059;-77
2023/11/29 01:37:26;;;;;;;0.65;0.65;;;;;;;1.45;32.44;91254.41;4919373;28;20035;-77
2023/11/29 01:39:52;;;;;;;0.60;0.60;;;;;;;1.39;32.25;91249.50;4936039;28;20043;-77
2023/11/29 01:42:18;;;;;;;0.52;0.52;;;;;;;1.30;33.24;91246.69;4921418;28;20442;-77
2023/11/29 01:44:44;;;;;;;0.70;0.70;;;;;;;1.28;32.86;91253.91;4925808;28;20051;-77
2023/11/29 01:47:13;;;;;;;0.60;0.60;;;;;;;1.37;32.52;91249.75;4931940;28;20458;-77
2023/11/29 01:49:40;;;;;;;0.50;0.50;;;;;;;1.20;32.53;91241.56;4937729;28;20962;-77
2023/11/29 01:52:07;;;;;;;0.60;0.60;;;;;;;1.15;33.03;91244.13;4942372;28;20043;-77
2023/11/29 01:54:33;;;;;;;0.70;0.70;;;;;;;1.10;32.36;91246.69;4935511;28;20039;-78
2023/11/29 01:56:58;;;;;;;0.55;0.55;;;;;;;1.02;33.60;91238.47;4937783;28;20302;-78
2023/11/29 01:59:24;;;;;;;0.50;0.50;;;;;;;1.12;32.33;91252.38;4913876;28;20054;-77
2023/11/29 02:01:50;;;;;;;0.50;0.50;;;;;;;1.12;33.15;91254.94;4927151;28;21298;-77
2023/11/29 02:04:16;;;;;;;0.60;0.60;;;;;;;1.03;32.93;91255.47;4935288;28;20035;-78
2023/11/29 02:06:42;;;;;;;0.60;0.60;;;;;;;0.98;32.97;91252.13;4936388;28;20521;-78
2023/11/29 02:09:08;;;;;;;0.60;0.60;;;;;;;0.92;32.67;91259.06;4926244;28;20043;-77
2023/11/29 02:11:39;;;;;;;0.50;0.50;;;;;;;0.88;32.71;91245.16;4928321;28;20729;-78
2023/11/29 02:14:05;;;;;;;0.60;0.60;;;;;;;0.94;32.41;91262.16;4922326;28;20067;-78
2023/11/29 02:16:31;;;;;;;0.60;0.60;;;;;;;1.12;31.60;91254.94;4935008;28;20063;-77
2023/11/29 02:18:57;;;;;;;0.63;0.63;;;;;;;1.09;32.33;91268.38;4908346;28;20053;-77
2023/11/29 02:21:26;;;;;;;0.60;0.60;;;;;;;1.06;32.37;91255.97;4938168;28;20043;-78
2023/11/29 02:23:56;;;;;;;0.70;0.70;;;;;;;0.99;32.58;91261.38;4937002;28;20039;-78
2023/11/29 02:26:21;;;;;;;0.70;0.70;;;;;;;0.94;31.84;91253.66;4937022;28;20059;-77
2023/11/29 02:28:47;;;;;;;0.70;0.70;;;;;;;1.03;32.24;91262.41;4921225;28;20114;-77
2023/11/29 02:31:12;;;;;;;0.68;0.68;;;;;;;1.00;32.61;91258.56;4940122;28;20039;-77
2023/11/29 02:33:38;;;;;;;0.70;0.70;;;;;;;1.03;31.63;91262.41;4940939;28;20039;-77
2023/11/29 02:36:04;;;;;;;0.60;0.60;;;;;;;1.12;30.99;91257.53;4936256;28;20031;-77
2023/11/29 02:38:30;;;;;;;0.68;0.68;;;;;;;1.10;31.30;91262.16;4920133;28;20062;-77
2023/11/29 02:40:56;;;;;;;0.80;0.80;;;;;;;1.12;31.06;91265.25;4938931;28;20047;-78
2023/11/29 02:43:22;;;;;;;0.50;0.50;;;;;;;1.20;31.00;91254.44;4915608;28;20042;-77
2023/11/29 02:45:47;;;;;;;0.50;0.50;;;;;;;1.27;31.11;91267.84;4935681;28;20031;-77
2023/11/29 02:48:13;;;;;;;0.50;0.50;;;;;;;1.15;31.38;91267.31;4934608;28;20534;-77
2023/11/29 02:50:38;;;;;;;0.60;0.60;;;;;;;1.22;31.36;91268.63;4945029;28;20102;-77
2023/11/29 02:53:04;;;;;;;0.50;0.50;;;;;;;1.32;31.31;91262.66;4932120;28;20070;-77
2023/11/29 02:55:30;;;;;;;0.50;0.50;;;;;;;1.36;31.52;91265.53;4928839;28;20054;-78
2023/11/29 02:57:57;;;;;;;0.50;0.50;;;;;;;1.25;31.59;91268.09;4923330;28;20471;-77
2023/11/29 03:00:22;;;;;;;0.40;0.40;;;;;;;1.39;30.83;91259.84;4938673;28;20035;-78
2023/11/29 03:02:48;;;;;;;0.70;0.70;;;;;;;1.31;31.17;91266.28;4938685;28;20046;-77
2023/11/29 03:05:14;;;;;;;0.60;0.60;;;;;;;1.30;30.92;91262.16;4935362;28;20098;-77
2023/11/29 03:07:39;;;;;;;0.50;0.50;;;;;;;1.28;31.55;91266.03;4924371;28;20126;-78
2023/11/29 03:10:06;;;;;;;0.65;0.65;;;;;;;1.29;31.53;91263.19;4931220;28;20047;-77
2023/11/29 03:12:32;;;;;;;0.75;0.75;;;;;;;1.17;31.44;91245.44;4946064;28;20050;-77
2023/11/29 03:14:58;;;;;;;0.60;0.60;;;;;;;1.21;31.62;91254.16;4934378;28;20354;-77
2023/11/29 03:17:23;;;;;;;0.70;0.70;;;;;;;1.19;31.56;91261.41;4931039;28;20420;-77
2023/11/29 03:19:49;;;;;;;0.68;0.68;;;;;;;1.11;31.07;91243.09;4933401;28;20039;-77
2023/11/29 03:22:15;;;;;;;0.68;0.68;;;;;;;1.17;31.45;91242.84;4920231;28;20133;-77
2023/11/29 03:24:40;;;;;;;0.70;0.70;;;;;;;1.28;31.26;91253.13;4943274;28;20043;-77
2023/11/29 03:27:06;;;;;;;0.50;0.50;;;;;;;1.32;31.00;91249.78;4937919;28;20078;-78
2023/11/29 03:29:31;;;;;;;1.20;0.85;;;;;;;1.34;31.45;91239.97;4935638;28;20043;-77
2023/11/29 03:31:57;;;;;;;0.75;0.75;;;;;;;1.35;31.17;91249.28;4923118;28;20035;-78
2023/11/29 03:34:23;;;;;;;0.70;0.70;;;;;;;1.34;31.57;91242.56;4911848;28;20074;-77
2023/11/29 03:36:48;;;;;;;0.68;0.68;;;;;;;1.33;31.07;91241.03;4920811;28;20479;-77
2023/11/29 03:39:14;;;;;;;0.73;0.68;;;;;;;1.29;30.72;91249.53;4942799;28;20040;-77
2023/11/29 03:41:40;;;;;;;0.60;0.60;;;;;;;1.35;31.60;91238.97;4917957;28;20047;-77
2023/11/29 03:44:05;;;;;;;0.60;0.60;;;;;;;1.29;31.18;91245.16;4921458;28;20051;-77
2023/11/29 03:46:31;;;;;;;0.70;0.70;;;;;;;1.39;30.94;91242.53;4936788;28;20035;-77
2023/11/29 03:48:56;;;;;;;0.52;0.52;;;;;;;1.36;31.35;91244.88;4937739;28;20071;-77
2023/11/29 03:51:22;;;;;;;0.60;0.60;;;;;;;1.42;31.01;91234.31;4928945;28;20039;-78
2023/11/29 03:53:48;;;;;;;0.85;0.70;;;;;;;1.32;31.08;91244.63;4933898;28;20047;-77
2023/11/29 03:56:13;;;;;;;0.70;0.70;;;;;;;1.20;31.53;91241.56;4919855;28;20153;-78
2023/11/29 03:58:39;;;;;;;0.63;0.63;;;;;;;1.15;31.64;91241.53;4936739;28;20074;-77
2023/11/29 04:01:04;;;;;;;0.80;0.80;;;;;;;1.16;32.04;91237.94;4923967;28;20031;-78
2023/11/29 04:03:30;;;;;;;0.75;0.75;;;;;;;1.15;32.08;91241.53;4921375;28;20071;-78
2023/11/29 04:05:55;;;;;;;0.70;0.70;;;;;;;1.28;31.28;91238.44;4959017;28;20107;-77
2023/11/29 04:08:21;;;;;;;0.60;0.60;;;;;;;1.25;31.59;91237.16;4945697;29;20459;-78
2023/11/29 04:10:47;;;;;;;0.50;0.50;;;;;;;1.28;31.52;91232.50;4945310;28;20114;-78
2023/11/29 04:13:13;;;;;;;0.68;0.68;;;;;;;1.18;31.48;91230.72;4920622;28;20048;-77
2023/11/29 04:15:39;;;;;;;0.50;0.50;;;;;;;1.15;31.60;91228.66;4935845;28;20098;-77
2023/11/29 04:18:04;;;;;;;0.60;0.60;;;;;;;1.24;31.56;91238.19;4932599;28;20063;-77
2023/11/29 04:20:30;;;;;;;0.57;0.57;;;;;;;1.15;31.12;91234.59;4916637;28;20132;-77
2023/11/29 04:22:57;;;;;;;0.50;0.50;;;;;;;1.11;31.87;91235.38;4919953;28;20047;-78
2023/11/29 04:25:23;;;;;;;0.60;0.60;;;;;;;1.13;31.75;91241.06;4922204;28;20031;-78
2023/11/29 04:27:48;;;;;;;0.70;0.70;;;;;;;1.24;31.15;91237.44;4920641;28;20043;-77
2023/11/29 04:30:14;;;;;;;0.63;0.63;;;;;;;1.31;30.79;91237.16;4927473;29;20039;-76
2023/11/29 04:32:40;;;;;;;0.52;0.52;;;;;;;1.26;31.34;91237.91;4939532;29;20146;-77
2023/11/29 04:35:07;;;;;;;0.70;0.70;;;;;;;1.45;30.76;91246.69;4923538;29;20031;-77
2023/11/29 04:37:33;;;;;;;0.50;0.50;;;;;;;1.50;30.41;91251.03;4933466;29;20411;-79
2023/11/29 04:39:59;;;;;;;0.45;0.45;;;;;;;1.39;30.53;91247.72;4919032;29;20031;-77
2023/11/29 04:42:26;;;;;;;0.50;0.50;;;;;;;1.34;30.98;91242.56;4938128;29;20063;-79
2023/11/29 04:44:52;;;;;;;0.60;0.60;;;;;;;1.36;31.08;91240.50;4931412;28;20055;-76
2023/11/29 04:47:18;;;;;;;0.55;0.55;;;;;;;1.35;31.40;91249.28;4916273;28;20071;-78
2023/11/29 04:49:44;;;;;;;0.60;0.60;;;;;;;1.28;30.77;91248.75;4933405;28;20112;-77
2023/11/29 04:52:09;;;;;;;0.50;0.50;;;;;;;1.30;30.96;91251.06;4935138;28;20055;-76
2023/11/29 04:54:35;;;;;;;0.60;0.60;;;;;;;1.27;31.23;91252.38;4940459;28;20203;-78
2023/11/29 04:57:01;;;;;;;0.70;0.70;;;;;;;1.22;31.33;91249.81;4944955;28;20523;-78
2023/11/29 04:59:26;;;;;;;0.50;0.50;;;;;;;1.25;30.98;91251.84;4949652;28;20048;-78
2023/11/29 05:01:52;;;;;;;0.60;0.60;;;;;;;1.26;31.11;91255.97;4948740;28;20249;-79
2023/11/29 05:04:18;;;;;;;0.70;0.70;;;;;;;1.28;30.30;91253.91;4953447;28;20039;-78
2023/11/29 05:06:43;;;;;;;0.50;0.50;;;;;;;1.30;30.88;91258.81;4935884;28;20589;-78
2023/11/29 05:09:14;;;;;;;0.60;0.60;;;;;;;1.28;30.58;91259.06;4934281;28;20129;-78
2023/11/29 05:11:40;;;;;;;0.60;0.60;;;;;;;1.32;30.53;91260.09;4940762;28;20035;-77
2023/11/29 05:14:06;;;;;;;0.60;0.60;;;;;;;1.27;31.03;91252.38;4948318;28;20039;-77
2023/11/29 05:16:33;;;;;;;0.50;0.50;;;;;;;1.38;30.60;91253.91;4951455;28;20045;-77
2023/11/29 05:18:59;;;;;;;0.68;0.68;;;;;;;1.36;30.79;91261.13;4947940;28;20039;-77
2023/11/29 05:21:26;;;;;;;0.57;0.57;;;;;;;1.34;30.14;91260.63;4927655;28;20043;-77
2023/11/29 05:23:52;;;;;;;0.50;0.50;;;;;;;1.21;30.51;91266.28;4932243;28;20043;-77
2023/11/29 05:26:17;;;;;;;0.50;0.50;;;;;;;1.33;30.49;91258.28;4947548;28;20039;-77
2023/11/29 05:28:43;;;;;;;0.60;0.60;;;;;;;1.29;30.48;91276.09;4938373;28;20553;-77
2023/11/29 05:31:09;;;;;;;0.52;0.52;;;;;;;1.30;30.71;91269.13;4950921;28;20042;-77
2023/11/29 05:33:35;;;;;;;0.70;0.70;;;;;;;1.22;30.94;91278.94;4955064;28;20047;-76
2023/11/29 05:36:01;;;;;;;0.57;0.57;;;;;;;1.23;31.31;91277.13;4938213;29;20126;-76
2023/11/29 05:38:26;;;;;;;0.73;0.60;;;;;;;1.20;31.61;91277.66;4920098;29;20032;-77
2023/11/29 05:40:57;;;;;;;0.60;0.60;;;;;;;1.15;31.77;91281.00;4923190;29;20042;-81
2023/11/29 05:43:24;;;;;;;0.50;0.50;;;;;;;1.09;31.51;91289.75;4959675;29;20075;-79
2023/11/29 05:45:49;;;;;;;0.65;0.65;;;;;;;1.20;31.87;91285.38;4915520;29;20097;-81
2023/11/29 05:48:15;;;;;;;0.57;0.57;;;;;;;1.15;31.89;91290.50;4936398;28;20086;-78
2023/11/29 05:50:40;;;;;;;0.70;0.70;;;;;;;1.13;32.55;91290.03;4960412;28;20027;-80
2023/11/29 05:53:06;;;;;;;0.50;0.50;;;;;;;1.08;32.57;91290.00;4941143;29;20386;-79
2023/11/29 05:55:34;;;;;;;0.60;0.60;;;;;;;1.02;33.07;91292.59;4962683;29;20043;-78
2023/11/29 05:58:00;;;;;;;0.50;0.50;;;;;;;0.87;32.85;91284.06;4943901;29;20043;-78
2023/11/29 06:00:26;;;;;;;0.43;0.43;;;;;;;0.99;32.70;91293.09;4958737;29;20039;-79
2023/11/29 06:02:52;;;;;;;0.60;0.60;;;;;;;0.94;32.88;91300.81;4922765;29;20053;-79
2023/11/29 06:05:17;;;;;;;0.38;0.38;;;;;;;0.90;32.57;91262.94;4925872;29;20043;-79
2023/11/29 06:07:43;;;;;;;0.88;0.68;;;;;;;1.10;32.67;91285.38;4958894;29;20549;-78
2023/11/29 06:10:09;;;;;;;0.68;0.60;;;;;;;1.10;32.68;91290.50;4960651;29;20501;-76
2023/11/29 06:12:35;;;;;;;1.00;0.73;;;;;;;1.02;33.23;91292.59;4960372;29;20044;-79
2023/11/29 06:15:04;;;;;;;0.60;0.60;;;;;;;0.96;33.03;91297.97;4944199;29;20042;-80
2023/11/29 06:17:32;;;;;;;0.98;0.70;;;;;;;0.93;32.75;91299.28;4964585;28;20039;-80
2023/11/29 06:19:58;;;;;;;0.60;0.60;;;;;;;0.94;32.90;91305.19;4949644;28;20050;-79
2023/11/29 06:22:23;;;;;;;0.60;0.60;;;;;;;0.93;32.72;91307.00;4945785;29;20031;-77
2023/11/29 06:24:51;;;;;;;0.50;0.50;;;;;;;0.88;32.69;91306.22;4963928;29;20026;-80
2023/11/29 06:27:17;;;;;;;0.50;0.50;;;;;;;0.89;32.59;91318.06;4934185;29;20047;-79
2023/11/29 06:29:43;;;;;;;0.73;0.73;;;;;;;0.87;32.92;91313.16;4944123;29;20386;-79
2023/11/29 06:32:09;;;;;;;0.60;0.60;;;;;;;0.82;33.19;91313.94;4956129;29;20086;-79
2023/11/29 06:34:34;;;;;;;0.50;0.50;;;;;;;0.83;33.01;91317.28;4961966;29;20031;-79
2023/11/29 06:37:00;;;;;;;0.60;0.60;;;;;;;0.78;33.25;91322.44;4956977;29;20035;-80
2023/11/29 06:39:25;;;;;;;0.52;0.52;;;;;;;0.76;33.02;91314.19;4957509;29;20023;-79
2023/11/29 06:41:51;;;;;;;0.70;0.70;;;;;;;0.71;33.31;91327.81;4961731;29;20050;-78
2023/11/29 06:44:17;;;;;;;0.68;0.68;;;;;;;0.73;32.81;91333.50;4937046;29;20050;-78
2023/11/29 06:46:43;;;;;;;0.50;0.50;;;;;;;0.71;32.97;91337.38;4957618;29;20549;-79
2023/11/29 06:49:09;;;;;;;0.77;0.77;;;;;;;0.78;32.36;91335.31;4929428;29;20055;-79
2023/11/29 06:51:36;;;;;;;0.73;0.73;;;;;;;0.82;32.13;91334.53;4961317;29;20035;-77
2023/11/29 06:54:05;;;;;;;0.70;0.70;;;;;;;0.81;32.26;91338.16;4923981;29;20038;-78
2023/11/29 06:56:31;;;;;;;0.63;0.63;;;;;;;0.82;32.67;91350.00;4928188;29;20082;-79
2023/11/29 06:58:57;;;;;;;0.65;0.65;;;;;;;0.81;32.78;91353.63;4927176;29;20032;-76
2023/11/29 07:01:22;;;;;;;0.70;0.70;;;;;;;0.73;32.86;91343.03;4944224;29;20044;-78
2023/11/29 07:03:48;;;;;;;0.50;0.50;;;;;;;0.83;32.41;91348.19;4926970;29;20034;-78
2023/11/29 07:06:24;;;;;;;0.85;0.63;;;;;;;0.93;32.57;91350.81;4952036;29;20174;-78
2023/11/29 07:08:50;;;;;;;0.70;0.70;;;;;;;1.90;32.42;91360.38;4929351;29;20036;-78
2023/11/29 07:11:20;;;;;;;0.60;0.60;;;;;;;3.35;31.13;91359.56;4953775;29;20391;-78
2023/11/29 07:13:46;;;;;;;0.60;0.60;;;;;;;4.72;29.62;91364.53;4952545;29;20365;-78
2023/11/29 07:16:12;;;;;;;0.65;0.65;;;;;;;6.00;27.65;91368.00;4952853;28;20038;-78
2023/11/29 07:18:37;;;;;;;0.50;0.50;;;;;;;7.06;26.68;91368.16;4952820;28;20037;-78
2023/11/29 07:21:04;;;;;;;0.50;0.50;;;;;;;8.01;24.60;91367.41;4949456;29;20062;-78
2023/11/29 07:23:30;;;;;;;0.68;0.68;;;;;;;9.01;24.16;91368.84;4951801;29;20050;-77
2023/11/29 07:25:56;;;;;;;0.45;0.45;;;;;;;9.75;23.01;91371.41;4947901;29;20028;-78
2023/11/29 07:28:22;;;;;;;0.60;0.60;;;;;;;10.37;21.86;91374.75;4951939;29;20043;-77
2023/11/29 07:30:49;;;;;;;0.50;0.50;;;;;;;11.15;21.37;91371.84;4934611;29;20033;-78
2023/11/29 07:33:15;;;;;;;1.98;0.60;;;;;;;11.93;21.25;91372.44;4934071;29;20047;-78
2023/11/29 07:35:41;;;;;;;0.50;0.50;;;;;;;12.73;20.14;91371.41;4952689;29;20065;-78
2023/11/29 07:38:07;;;;;;;0.77;0.60;;;;;;;13.11;19.92;91374.50;4952077;29;20074;-78
2023/11/29 07:40:32;;;;;;;0.45;0.45;;;;;;;13.14;20.19;91386.22;4949677;29;20434;-78
2023/11/29 07:42:58;;;;;;;0.47;0.47;;;;;;;13.82;19.46;91380.38;4950964;29;20037;-78
2023/11/29 07:45:24;;;;;;;0.60;0.60;;;;;;;13.97;19.26;91384.19;4952842;29;20382;-78
2023/11/29 07:47:49;;;;;;;0.47;0.47;;;;;;;15.19;18.28;91390.00;4952915;28;20458;-78
2023/11/29 07:50:15;;;;;;;0.50;0.50;;;;;;;14.65;18.69;91391.31;4940686;29;20380;-78
2023/11/29 07:52:41;;;;;;;0.50;0.50;;;;;;;15.02;19.08;91387.69;4952869;29;20503;-79
2023/11/29 07:55:07;;;;;;;0.63;0.63;;;;;;;15.52;18.29;91394.91;4951719;29;20074;-78
2023/11/29 07:57:33;;;;;;;0.65;0.52;;;;;;;15.86;18.10;91392.66;4954196;29;20047;-79
2023/11/29 08:00:05;;;;;;;0.30;0.30;;;;;;;16.26;17.68;91399.50;4951597;29;20023;-78
2023/11/29 08:02:38;;;;;;;0.47;0.47;;;;;;;14.96;18.44;91401.13;4934177;29;20063;-79
2023/11/29 08:05:04;;;;;;;1.00;0.50;;;;;;;13.90;18.99;91403.16;4951561;29;20051;-78
2023/11/29 08:07:32;;;;;;;0.50;0.50;;;;;;;12.83;19.66;91405.13;4951747;28;20035;-78
2023/11/29 08:09:59;;;;;;;0.50;0.50;;;;;;;14.25;19.38;91400.03;4952261;29;20039;-78
2023/11/29 08:12:24;;;;;;;0.68;0.63;;;;;;;13.52;19.67;91406.19;4951177;28;20035;-79
2023/11/29 08:14:51;;;;;;;0.60;0.60;;;;;;;13.49;19.88;91402.34;4940901;29;20282;-79
2023/11/29 08:17:16;;;;;;;0.50;0.50;;;;;;;14.65;19.92;91401.84;4952171;29;20054;-79
2023/11/29 08:19:42;;;;;;;0.70;0.70;;;;;;;13.62;19.02;91415.47;4952617;28;20035;-79
2023/11/29 08:22:08;;;;;;;1.08;0.70;;;;;;;14.28;20.08;91420.41;4960385;28;20039;-78
2023/11/29 08:24:36;;;;;;;0.70;0.70;;;;;;;14.91;20.22;91419.06;4951923;28;20049;-79
2023/11/29 08:27:01;;;;;;;0.70;0.65;;;;;;;15.36;19.66;91423.16;4949182;29;20042;-82
2023/11/29 08:29:28;;;;;;;0.43;0.43;;;;;;;15.16;19.96;91433.63;4931098;29;20040;-80
2023/11/29 08:31:53;;;;;;;0.80;0.65;;;;;;;14.83;19.73;91427.88;4953594;28;20408;-80
2023/11/29 08:34:20;;;;;;;0.85;0.60;;;;;;;13.95;20.64;91434.50;4937181;29;20089;-81
2023/11/29 08:36:46;;;;;;;0.70;0.70;;;;;;;12.69;22.35;91435.06;4954229;29;20372;-81
2023/11/29 08:39:11;;;;;;;0.43;0.43;;;;;;;12.96;22.16;91432.94;4936036;29;20055;-81
2023/11/29 08:41:37;;;;;;;0.98;0.80;;;;;;;11.77;23.55;91437.78;4945755;29;20066;-81
2023/11/29 08:44:04;;;;;;;0.47;0.47;;;;;;;12.06;22.18;91448.25;4946937;29;20043;-81
2023/11/29 08:46:29;;;;;;;0.85;0.73;;;;;;;12.99;21.74;91445.44;4948302;29;20390;-82
2023/11/29 08:48:55;;;;;;;0.93;0.80;;;;;;;13.28;20.53;91449.00;4939040;29;20055;-81
2023/11/29 08:51:20;;;;;;;0.80;0.80;;;;;;;12.94;20.81;91445.63;4952792;29;20035;-80
2023/11/29 08:53:47;;;;;;;0.70;0.70;;;;;;;12.81;21.64;91451.94;4922140;29;20565;-81
2023/11/29 08:56:17;;;;;;;0.65;0.60;;;;;;;12.58;21.80;91449.69;4937300;29;20051;-81
2023/11/29 08:58:46;;;;;;;0.60;0.60;;;;;;;13.67;20.92;91436.31;4938841;29;20047;-80
2023/11/29 09:01:16;;;;;;;0.82;0.60;;;;;;;13.45;21.26;91442.78;4954822;29;20039;-80
2023/11/29 09:03:41;;;;;;;0.73;0.70;;;;;;;13.43;21.31;91450.22;4949491;29;20122;-80
2023/11/29 09:06:08;;;;;;;0.85;0.70;;;;;;;12.88;21.73;91449.56;4952844;29;20118;-81
2023/11/29 09:08:33;;;;;;;1.30;0.90;;;;;;;11.81;23.48;91454.41;4953837;29;20035;-80
2023/11/29 09:11:00;;;;;;;0.95;0.85;;;;;;;11.12;24.14;91463.38;4954299;29;20035;-80
2023/11/29 09:13:26;;;;;;;1.33;0.75;;;;;;;10.62;24.04;91456.88;4947185;29;20431;-81
2023/11/29 09:15:51;;;;;;;1.08;0.88;;;;;;;10.07;25.56;91458.28;4955527;29;20480;-81
2023/11/29 09:18:17;;;;;;;0.80;0.80;;;;;;;10.02;24.67;91463.69;4937244;29;20042;-81
2023/11/29 09:20:44;;;;;;;1.00;0.80;;;;;;;10.01;25.33;91467.34;4954036;29;20019;-81
2023/11/29 09:23:10;;;;;;;0.60;0.60;;;;;;;9.69;26.26;91466.69;4946487;29;20066;-81
2023/11/29 09:25:36;;;;;;;1.50;0.70;;;;;;;9.68;26.12;91469.59;4937155;29;20035;-81
2023/11/29 09:28:06;;;;;;;2.38;0.73;;;;;;;9.51;26.60;91476.34;4947042;29;20042;-81
2023/11/29 09:30:35;;;;;;;0.60;0.60;;;;;;;9.80;25.71;91461.94;4953697;29;20048;-79
2023/11/29 09:33:00;;;;;;;0.95;0.85;;;;;;;9.00;26.86;91479.53;4943897;29;20042;-82
2023/11/29 09:35:26;;;;;;;0.70;0.70;;;;;;;9.03;26.25;91481.53;4962263;29;20035;-79
2023/11/29 09:37:52;;;;;;;1.55;0.90;;;;;;;10.03;26.55;91480.13;4968310;28;20116;-82
2023/11/29 09:40:17;;;;;;;0.73;0.73;;;;;;;9.32;28.69;91488.88;4951599;29;20435;-82
2023/11/29 09:42:44;;;;;;;1.10;0.90;;;;;;;8.37;29.19;91476.84;4941840;29;20046;-82
2023/11/29 09:45:21;;;;;;;1.20;0.85;;;;;;;8.36;28.43;91483.13;4950024;29;20063;-81
2023/11/29 09:47:47;;;;;;;0.55;0.55;;;;;;;8.28;28.91;91473.41;4944292;29;20031;-82
2023/11/29 09:50:13;;;;;;;1.27;0.90;;;;;;;8.57;29.94;91475.63;4958484;29;20095;-80
2023/11/29 09:52:41;;;;;;;0.80;0.77;;;;;;;9.11;28.31;91478.97;4958142;29;20122;-82
2023/11/29 09:55:07;;;;;;;0.63;0.63;;;;;;;9.29;27.66;91468.59;4957429;29;21010;-81
2023/11/29 09:57:33;;;;;;;0.88;0.70;;;;;;;8.47;27.68;91460.22;4958403;29;20053;-81
2023/11/29 10:00:00;;;;;;;0.70;0.70;;;;;;;8.79;27.16;91482.66;4949022;29;20201;-81
2023/11/29 10:02:31;;;;;;;0.82;0.80;;;;;;;8.54;28.00;91479.59;4950017;29;20406;-81
2023/11/29 10:04:59;;;;;;;1.00;0.80;;;;;;;8.58;28.32;91477.16;4953666;29;20050;-81
2023/11/29 10:07:26;;;;;;;0.73;0.73;;;;;;;8.72;28.77;91471.88;4957187;29;20054;-80
2023/11/29 10:09:52;;;;;;;0.55;0.55;;;;;;;8.79;28.55;91477.44;4940535;29;20039;-82
2023/11/29 10:12:18;;;;;;;1.25;0.70;;;;;;;8.92;27.85;91475.81;4949557;29;20112;-81
2023/11/29 10:14:44;;;;;;;0.50;0.50;;;;;;;9.44;26.85;91475.25;4957376;29;20039;-81
2023/11/29 10:17:15;;;;;;;0.65;0.65;;;;;;;9.35;26.76;91473.38;4940189;29;20027;-80
2023/11/29 10:19:47;;;;;;;1.35;0.90;;;;;;;9.38;26.63;91457.09;4957290;29;20102;-81
2023/11/29 10:22:15;;;;;;;0.90;0.80;;;;;;;9.02;27.77;91472.16;4949349;29;20095;-82
2023/11/29 10:24:40;;;;;;;0.70;0.70;;;;;;;8.45;27.94;91457.13;4956953;29;20019;-81
2023/11/29 10:27:08;;;;;;;0.50;0.50;;;;;;;8.96;26.56;91461.88;4956095;29;20039;-81
2023/11/29 10:29:34;;;;;;;0.85;0.82;;;;;;;8.70;27.46;91468.78;4945775;29;20031;-81
2023/11/29 10:32:03;;;;;;;0.60;0.60;;;;;;;8.93;26.75;91466.91;4953865;29;20042;-81
2023/11/29 10:34:33;;;;;;;0.70;0.60;;;;;;;8.67;26.40;91464.94;4956557;29;20132;-80
2023/11/29 10:37:00;;;;;;;0.93;0.80;;;;;;;9.33;26.72;91453.84;4956452;28;20035;-81
2023/11/29 10:39:30;;;;;;;0.60;0.60;;;;;;;9.09;26.46;91459.44;4945797;29;20118;-80
2023/11/29 10:41:57;;;;;;;0.75;0.75;;;;;;;8.75;26.36;91456.38;4939448;29;20039;-80
2023/11/29 10:44:37;;;;;;;2.10;0.70;;;;;;;8.57;27.53;91461.81;4936860;29;20090;-81
2023/11/29 10:47:09;;;;;;;2.83;0.77;;;;;;;8.53;26.05;91456.41;4946458;28;20078;-81
2023/11/29 10:49:42;;;;;;;0.77;0.73;;;;;;;9.18;26.61;91452.41;4940346;29;20039;-80
2023/11/29 10:52:08;;;;;;;0.60;0.60;;;;;;;8.66;25.38;91452.19;4939717;29;20062;-81
2023/11/29 10:54:35;;;;;;;0.50;0.50;;;;;;;8.67;25.09;91449.28;4932070;29;20031;-82
2023/11/29 10:57:01;;;;;;;0.90;0.70;;;;;;;8.59;25.73;91451.84;4955270;29;20062;-81
2023/11/29 10:59:30;;;;;;;2.30;0.70;;;;;;;8.38;26.21;91446.34;4938831;29;20129;-81
2023/11/29 11:01:56;;;;;;;2.58;0.80;;;;;;;8.46;25.78;91448.22;4948837;29;20050;-81
2023/11/29 11:04:35;;;;;;;0.60;0.60;;;;;;;8.81;25.14;91441.38;4938257;29;20436;-80
2023/11/29 11:07:04;;;;;;;0.70;0.70;;;;;;;8.76;25.37;91446.72;4954907;28;20040;-81
2023/11/29 11:09:36;;;;;;;0.52;0.52;;;;;;;9.18;25.72;91447.19;4938276;29;20031;-80
2023/11/29 11:12:04;;;;;;;0.70;0.70;;;;;;;9.15;25.28;91455.63;4953955;29;20093;-80
2023/11/29 11:14:46;;;;;;;0.43;0.43;;;;;;;9.46;24.58;91457.44;4947569;29;20029;-81
2023/11/29 11:17:13;;;;;;;0.63;0.63;;;;;;;9.14;25.90;91457.50;4937428;28;20035;-81
2023/11/29 11:19:43;;;;;;;0.77;0.77;;;;;;;8.59;25.88;91457.06;4939157;29;20042;-81
2023/11/29 11:22:12;;;;;;;0.95;0.80;;;;;;;8.71;26.57;91454.66;4937871;29;20042;-82
2023/11/29 11:24:53;;;;;;;0.95;0.80;;;;;;;8.33;26.86;91455.00;4947762;29;20070;-80
2023/11/29 11:27:21;;;;;;;1.00;0.82;;;;;;;8.47;27.32;91455.78;4946645;28;20118;-81
2023/11/29 11:29:46;;;;;;;0.73;0.68;;;;;;;8.58;27.35;91461.53;4954929;29;20506;-81
2023/11/29 11:32:12;;;;;;;2.92;0.70;;;;;;;8.36;26.63;91464.09;4937473;29;20142;-80
2023/11/29 11:34:38;;;;;;;0.68;0.60;;;;;;;8.25;27.47;91453.13;4955434;29;20031;-81
2023/11/29 11:37:07;;;;;;;0.70;0.70;;;;;;;8.40;25.64;91450.22;4938478;28;20073;-80